Time;durP1;ratioP1;P1;durP2;ratioP2;P2;SDS_P1;SDS_P2;PMS_P1;PMS_P2;Temp;Humidity;BMP_temperature;BMP_pressure;BME280_temperature;BME280_humidity;BME280_pressure;Samples;Min_cycle;Max_cycle;Signal;HPM_P1;HPM_P2
2021/12/13 00:02:24;;;;;;;3.00;2.90;;;16.30;68.60;;;;;;5009927;28;44006;-69
2021/12/13 00:04:58;;;;;;;2.83;2.73;;;16.30;68.60;;;;;;5047200;28;43483;-69
2021/12/13 00:07:29;;;;;;;2.57;2.57;;;16.30;68.80;;;;;;5047262;28;44031;-69
2021/12/13 00:09:59;;;;;;;2.70;2.70;;;16.30;68.50;;;;;;5047498;28;44200;-69
2021/12/13 00:12:29;;;;;;;2.60;2.60;;;16.50;68.20;;;;;;5047205;28;43935;-69
2021/12/13 00:14:57;;;;;;;2.63;2.53;;;16.60;67.70;;;;;;5047447;28;43902;-68
2021/12/13 00:17:26;;;;;;;3.00;2.90;;;16.70;67.30;;;;;;5046619;28;44009;-69
2021/12/13 00:19:58;;;;;;;3.20;3.10;;;16.80;67.10;;;;;;5046856;28;43890;-69
2021/12/13 00:22:34;;;;;;;2.70;2.70;;;16.70;67.00;;;;;;5047224;28;43909;-69
2021/12/13 00:25:03;;;;;;;2.60;2.50;;;16.60;67.20;;;;;;5047407;28;43472;-69
2021/12/13 00:27:31;;;;;;;2.77;2.67;;;16.60;67.50;;;;;;5046645;28;43987;-69
2021/12/13 00:30:04;;;;;;;2.47;2.47;;;16.50;67.60;;;;;;5028661;28;43983;-70
2021/12/13 00:32:35;;;;;;;2.50;2.50;;;16.50;67.90;;;;;;5046990;28;44084;-69
2021/12/13 00:35:06;;;;;;;2.57;2.50;;;16.40;68.70;;;;;;5047296;28;43985;-70
2021/12/13 00:37:38;;;;;;;2.53;2.43;;;16.40;68.10;;;;;;5046611;28;43941;-69
2021/12/13 00:40:08;;;;;;;2.93;2.83;;;16.30;68.80;;;;;;5028740;28;44984;-69
2021/12/13 00:42:37;;;;;;;2.77;2.67;;;16.30;68.90;;;;;;5019485;28;44044;-69
2021/12/13 00:45:07;;;;;;;2.43;2.33;;;16.30;68.30;;;;;;5046877;28;44000;-69
2021/12/13 00:47:36;;;;;;;2.90;2.80;;;16.30;68.50;;;;;;5046205;28;44974;-69
2021/12/13 00:50:07;;;;;;;2.53;2.47;;;16.30;68.30;;;;;;5046391;28;44077;-69
2021/12/13 00:52:37;;;;;;;2.40;2.40;;;16.40;68.00;;;;;;5046806;28;43963;-68
2021/12/13 00:55:11;;;;;;;2.50;2.50;;;16.50;67.80;;;;;;5047149;28;43782;-69
2021/12/13 00:57:41;;;;;;;2.57;2.57;;;16.50;67.70;;;;;;5046436;28;43938;-71
2021/12/13 01:00:23;;;;;;;2.30;2.30;;;16.50;67.90;;;;;;5028294;28;45026;-69
2021/12/13 01:02:54;;;;;;;2.47;2.47;;;16.40;67.90;;;;;;5046622;28;43976;-69
2021/12/13 01:05:39;;;;;;;2.53;2.43;;;16.40;68.00;;;;;;5046393;28;44010;-69
2021/12/13 01:08:31;;;;;;;2.40;2.40;;;16.30;68.10;;;;;;5047124;28;44108;-69
2021/12/13 01:11:17;;;;;;;2.50;2.50;;;16.30;68.30;;;;;;5053180;28;43947;-69
2021/12/13 01:13:52;;;;;;;2.60;2.50;;;16.30;68.30;;;;;;5046822;28;44047;-68
2021/12/13 01:16:49;;;;;;;2.40;2.40;;;16.30;68.40;;;;;;5047825;28;43970;-69
2021/12/13 01:19:29;;;;;;;2.40;2.40;;;16.30;68.50;;;;;;5034890;28;47290;-69
2021/12/13 01:22:24;;;;;;;2.33;2.33;;;16.30;68.50;;;;;;5052902;28;43405;-69
2021/12/13 01:25:16;;;;;;;2.20;2.20;;;16.20;68.50;;;;;;5050095;28;43959;-69
2021/12/13 01:27:46;;;;;;;2.30;2.30;;;16.20;68.60;;;;;;5053650;28;44015;-69
2021/12/13 01:30:15;;;;;;;2.77;2.67;;;16.30;68.70;;;;;;5046645;28;43942;-69
2021/12/13 01:32:45;;;;;;;2.37;2.37;;;16.40;68.50;;;;;;5052586;28;43952;-69
2021/12/13 01:35:14;;;;;;;2.40;2.30;;;16.50;68.00;;;;;;5052882;28;43965;-69
2021/12/13 01:37:47;;;;;;;2.17;2.17;;;16.70;67.60;;;;;;5053293;28;43899;-69
2021/12/13 01:40:17;;;;;;;2.20;2.20;;;16.70;67.10;;;;;;5053011;28;44044;-69
2021/12/13 01:42:45;;;;;;;2.40;2.40;;;16.80;67.00;;;;;;5052491;28;44289;-68
2021/12/13 01:45:14;;;;;;;2.20;2.20;;;16.70;67.70;;;;;;5034577;28;44013;-68
2021/12/13 01:47:43;;;;;;;2.40;2.40;;;16.60;67.20;;;;;;5052804;28;44004;-69
2021/12/13 01:50:14;;;;;;;2.50;2.40;;;16.60;67.40;;;;;;5052323;28;43930;-69
2021/12/13 01:52:42;;;;;;;2.23;2.23;;;16.50;67.60;;;;;;5052578;28;43948;-69
2021/12/13 01:55:15;;;;;;;2.30;2.30;;;16.50;67.80;;;;;;5052644;28;44082;-69
2021/12/13 01:57:50;;;;;;;2.60;2.60;;;16.40;67.90;;;;;;5034966;28;44168;-69
2021/12/13 02:00:31;;;;;;;2.10;2.10;;;16.40;68.00;;;;;;5052492;28;43941;-69
2021/12/13 02:03:02;;;;;;;2.30;2.30;;;16.40;68.90;;;;;;5052080;28;43937;-69
2021/12/13 02:05:32;;;;;;;2.40;2.33;;;16.30;68.10;;;;;;5045316;28;44120;-69
2021/12/13 02:08:02;;;;;;;2.30;2.30;;;16.30;68.30;;;;;;5046369;28;43965;-69
2021/12/13 02:10:32;;;;;;;2.10;2.10;;;16.30;68.50;;;;;;5046426;28;44976;-68
2021/12/13 02:13:04;;;;;;;2.33;2.33;;;16.40;68.20;;;;;;5052224;28;43932;-70
2021/12/13 02:18:21;;;;;;;2.10;2.10;;;16.50;67.60;;;;;;5052533;28;43918;-69
2021/12/13 02:20:52;;;;;;;2.10;2.10;;;16.50;67.70;;;;;;5031055;28;44333;-69
2021/12/13 02:23:22;;;;;;;2.33;2.33;;;16.50;67.90;;;;;;5048805;28;43878;-69
2021/12/13 02:25:51;;;;;;;2.00;2.00;;;16.40;67.90;;;;;;5048660;28;44088;-68
2021/12/13 02:28:21;;;;;;;2.03;2.03;;;16.40;68.10;;;;;;5049096;28;43471;-69
2021/12/13 02:30:56;;;;;;;2.30;2.23;;;16.40;68.20;;;;;;5048681;28;43986;-69
2021/12/13 02:33:25;;;;;;;2.20;2.20;;;16.30;68.20;;;;;;5048373;28;44000;-69
2021/12/13 02:35:59;;;;;;;1.90;1.90;;;16.30;68.30;;;;;;5042060;28;43971;-69
2021/12/13 02:38:28;;;;;;;2.10;2.10;;;16.30;68.40;;;;;;5043372;28;43962;-69
2021/12/13 02:40:57;;;;;;;2.07;2.07;;;16.30;68.50;;;;;;5048404;28;43912;-69
2021/12/13 02:43:28;;;;;;;2.00;2.00;;;16.30;68.60;;;;;;5030234;28;45237;-69
2021/12/13 02:45:57;;;;;;;2.03;2.03;;;16.30;68.50;;;;;;5048555;28;44031;-69
2021/12/13 02:48:31;;;;;;;2.10;2.10;;;16.30;68.60;;;;;;5048836;28;44082;-69
2021/12/13 02:51:03;;;;;;;1.90;1.90;;;16.30;68.70;;;;;;5048633;28;44025;-69
2021/12/13 02:53:40;;;;;;;2.00;2.00;;;16.40;68.50;;;;;;5048394;28;43969;-69
2021/12/13 02:56:07;;;;;;;1.80;1.80;;;16.60;68.00;;;;;;5048663;28;43404;-69
2021/12/13 02:58:36;;;;;;;2.10;2.10;;;16.70;67.60;;;;;;5048646;28;43961;-69
2021/12/13 03:01:07;;;;;;;2.17;2.17;;;16.80;67.20;;;;;;5048177;28;44016;-69
2021/12/13 03:03:42;;;;;;;2.10;2.10;;;16.80;66.90;;;;;;5048249;28;43988;-69
2021/12/13 03:06:11;;;;;;;1.80;1.80;;;16.70;66.90;;;;;;5047908;28;44032;-69
2021/12/13 03:08:42;;;;;;;1.77;1.77;;;16.70;67.10;;;;;;5048576;28;43910;-69
2021/12/13 03:11:12;;;;;;;2.10;2.10;;;16.60;67.40;;;;;;5048072;28;44801;-69
2021/12/13 03:13:40;;;;;;;1.80;1.80;;;16.50;67.50;;;;;;5041252;28;43890;-69
2021/12/13 03:16:12;;;;;;;1.97;1.97;;;16.50;67.70;;;;;;5020375;28;43405;-68
2021/12/13 03:18:43;;;;;;;1.80;1.80;;;16.40;67.80;;;;;;5042505;28;43337;-69
2021/12/13 03:21:37;;;;;;;1.80;1.80;;;16.40;68.00;;;;;;5047978;28;43973;-69
2021/12/13 03:24:19;;;;;;;2.10;2.10;;;16.40;68.10;;;;;;5047798;28;43993;-70
2021/12/13 03:27:02;;;;;;;2.00;2.00;;;16.30;68.10;;;;;;5048128;28;43419;-70
2021/12/13 03:29:40;;;;;;;1.70;1.70;;;16.30;68.40;;;;;;5048488;28;43823;-69
2021/12/13 03:32:11;;;;;;;2.00;2.00;;;16.40;68.30;;;;;;5046397;28;44797;-69
2021/12/13 03:34:40;;;;;;;1.90;1.90;;;16.50;67.90;;;;;;5047842;28;43815;-69
2021/12/13 03:37:09;;;;;;;2.00;2.00;;;16.50;67.70;;;;;;5047805;28;44019;-68
2021/12/13 03:39:40;;;;;;;2.20;2.20;;;16.50;67.70;;;;;;5048126;28;43868;-69
2021/12/13 03:42:10;;;;;;;2.00;2.00;;;16.50;67.90;;;;;;5047646;28;43891;-70
2021/12/13 03:44:39;;;;;;;2.10;2.10;;;16.40;67.90;;;;;;5047324;28;43941;-69
2021/12/13 03:47:11;;;;;;;1.77;1.77;;;16.40;68.00;;;;;;5029516;28;43988;-70
2021/12/13 03:49:42;;;;;;;1.97;1.97;;;16.40;68.10;;;;;;5029682;28;44181;-69
2021/12/13 03:52:13;;;;;;;1.90;1.90;;;16.30;68.20;;;;;;5047190;28;45057;-70
2021/12/13 03:54:43;;;;;;;1.90;1.90;;;16.30;68.30;;;;;;5047476;28;43810;-69
2021/12/13 03:57:11;;;;;;;1.93;1.93;;;16.30;68.30;;;;;;5047292;28;43995;-69
2021/12/13 03:59:40;;;;;;;2.10;2.10;;;16.30;68.40;;;;;;5047785;28;44153;-69
2021/12/13 04:02:09;;;;;;;1.80;1.80;;;16.30;68.40;;;;;;5040592;28;44056;-69
2021/12/13 04:04:40;;;;;;;1.80;1.80;;;16.20;68.50;;;;;;5040002;28;44052;-69
2021/12/13 04:07:10;;;;;;;2.10;2.10;;;16.30;68.50;;;;;;5041142;28;44014;-69
2021/12/13 04:09:38;;;;;;;1.90;1.90;;;16.30;68.70;;;;;;5047544;28;43939;-69
2021/12/13 04:12:08;;;;;;;1.90;1.90;;;16.30;68.50;;;;;;5028889;28;46338;-69
2021/12/13 04:14:40;;;;;;;2.00;2.00;;;16.50;68.20;;;;;;5046873;28;43981;-69
2021/12/13 04:17:22;;;;;;;1.63;1.63;;;16.60;67.80;;;;;;5047350;28;44179;-70
2021/12/13 04:19:53;;;;;;;1.90;1.90;;;16.70;67.30;;;;;;5047619;28;43954;-69
2021/12/13 04:22:23;;;;;;;1.70;1.70;;;16.70;67.00;;;;;;5046965;28;44059;-69
2021/12/13 04:24:52;;;;;;;1.60;1.60;;;16.70;66.90;;;;;;5046782;28;43822;-69
2021/12/13 04:27:24;;;;;;;1.90;1.90;;;16.60;67.00;;;;;;5046850;28;43921;-68
2021/12/13 04:30:01;;;;;;;1.90;1.90;;;16.60;67.40;;;;;;5047556;28;43933;-70
2021/12/13 04:32:31;;;;;;;2.00;2.00;;;16.50;67.50;;;;;;5046827;28;44012;-68
2021/12/13 04:35:00;;;;;;;1.70;1.70;;;16.40;67.60;;;;;;5046651;28;43334;-69
2021/12/13 04:37:30;;;;;;;1.90;1.90;;;16.40;67.80;;;;;;5040468;28;43939;-69
2021/12/13 04:39:59;;;;;;;1.60;1.60;;;16.40;68.00;;;;;;5047096;28;44012;-70
2021/12/13 04:42:29;;;;;;;1.90;1.90;;;16.40;68.20;;;;;;5046801;28;43963;-69
2021/12/13 04:45:00;;;;;;;1.73;1.73;;;16.30;68.20;;;;;;5046469;28;44435;-70
2021/12/13 04:47:30;;;;;;;2.60;2.50;;;16.30;68.20;;;;;;5028462;28;43384;-70
2021/12/13 04:50:09;;;;;;;9.23;4.10;;;16.30;68.50;;;;;;5028939;28;44026;-69
2021/12/13 04:52:37;;;;;;;6.43;3.70;;;16.40;68.40;;;;;;5028222;28;46194;-69
2021/12/13 04:55:07;;;;;;;8.03;4.33;;;16.50;67.90;;;;;;5046525;28;43920;-69
2021/12/13 04:57:36;;;;;;;10.57;4.17;;;16.50;67.60;;;;;;5046355;28;43335;-69
2021/12/13 05:00:08;;;;;;;8.80;4.50;;;16.50;67.60;;;;;;5046742;28;43939;-69
2021/12/13 05:02:36;;;;;;;9.03;5.27;;;16.50;67.70;;;;;;5046423;28;44000;-69
2021/12/13 05:05:05;;;;;;;10.87;4.87;;;16.40;67.80;;;;;;5045544;28;44046;-69
2021/12/13 05:07:33;;;;;;;10.30;4.90;;;16.40;68.00;;;;;;5046390;28;43446;-68
2021/12/13 05:10:02;;;;;;;13.20;5.33;;;16.40;68.10;;;;;;5046855;28;43965;-68
2021/12/13 05:12:29;;;;;;;10.43;5.37;;;16.30;68.20;;;;;;5046088;28;44214;-69
2021/12/13 05:15:01;;;;;;;10.27;5.90;;;16.30;68.30;;;;;;5046187;28;44254;-70
2021/12/13 05:17:35;;;;;;;11.67;5.83;;;16.30;68.40;;;;;;5046153;28;43393;-70
2021/12/13 05:20:09;;;;;;;10.17;5.40;;;16.30;68.50;;;;;;5046997;28;43397;-69
2021/12/13 05:22:40;;;;;;;11.27;5.23;;;16.30;68.50;;;;;;5046168;28;43929;-69
2021/12/13 05:25:08;;;;;;;12.13;5.63;;;16.30;69.30;;;;;;5039929;28;43994;-69
2021/12/13 05:27:39;;;;;;;9.67;5.50;;;16.30;68.60;;;;;;5039727;28;43383;-69
2021/12/13 05:30:14;;;;;;;11.93;6.33;;;16.30;68.90;;;;;;5040903;28;43400;-70
2021/12/13 05:32:44;;;;;;;12.13;5.77;;;16.30;68.60;;;;;;5046065;28;45226;-70
2021/12/13 05:35:18;;;;;;;11.97;5.63;;;16.50;68.30;;;;;;5027974;28;45158;-69
2021/12/13 05:37:47;;;;;;;12.83;5.60;;;16.60;67.70;;;;;;5046332;28;43949;-69
2021/12/13 05:40:16;;;;;;;9.77;5.30;;;16.80;67.40;;;;;;5046467;28;44079;-69
2021/12/13 05:42:46;;;;;;;11.20;5.87;;;16.80;67.70;;;;;;5045927;28;44034;-69
2021/12/13 05:45:20;;;;;;;11.73;5.40;;;16.80;66.90;;;;;;5027854;28;46325;-69
2021/12/13 05:47:57;;;;;;;9.50;5.23;;;16.70;67.00;;;;;;5045916;28;43901;-69
2021/12/13 05:50:31;;;;;;;10.00;5.30;;;16.70;67.30;;;;;;5046555;28;43408;-69
2021/12/13 05:53:02;;;;;;;9.60;5.33;;;16.60;67.40;;;;;;5045612;28;44012;-69
2021/12/13 05:55:30;;;;;;;9.27;4.70;;;16.50;67.60;;;;;;5046872;28;43951;-69
2021/12/13 05:57:58;;;;;;;8.20;5.07;;;16.50;67.80;;;;;;5011164;28;44068;-70
2021/12/13 06:00:30;;;;;;;6.37;4.73;;;16.50;68.00;;;;;;5049633;28;43559;-69
2021/12/13 06:03:01;;;;;;;11.30;5.77;;;16.40;68.00;;;;;;5049352;28;43815;-69
2021/12/13 06:05:30;;;;;;;6.17;4.50;;;16.40;68.10;;;;;;5030159;28;45019;-69
2021/12/13 06:07:59;;;;;;;7.07;4.70;;;16.40;68.30;;;;;;5030887;28;43986;-69
2021/12/13 06:10:29;;;;;;;8.90;5.17;;;16.30;68.30;;;;;;5049505;28;43511;-69
2021/12/13 06:12:58;;;;;;;7.23;4.73;;;16.40;68.40;;;;;;5048931;28;43855;-69
2021/12/13 06:15:31;;;;;;;7.57;4.83;;;16.50;68.00;;;;;;5048780;28;44044;-68
2021/12/13 06:18:18;;;;;;;7.87;4.80;;;16.50;67.80;;;;;;5049086;28;43940;-69
2021/12/13 06:20:53;;;;;;;6.33;4.80;;;16.50;67.60;;;;;;5049636;28;44293;-69
2021/12/13 06:23:22;;;;;;;5.70;4.40;;;16.50;67.80;;;;;;5048744;28;44297;-69
2021/12/13 06:25:54;;;;;;;8.47;5.27;;;16.50;68.00;;;;;;5048646;28;43915;-69
2021/12/13 06:28:23;;;;;;;5.77;4.53;;;16.40;68.00;;;;;;5048985;28;43396;-69
2021/12/13 06:30:55;;;;;;;6.83;4.70;;;16.40;68.20;;;;;;5027913;28;43949;-70
2021/12/13 06:33:23;;;;;;;7.93;4.60;;;16.30;68.20;;;;;;5042702;28;43949;-69
2021/12/13 06:35:52;;;;;;;4.53;4.13;;;16.30;68.30;;;;;;5030818;28;44087;-69
2021/12/13 06:38:42;;;;;;;6.17;4.53;;;16.30;68.50;;;;;;5048553;28;43974;-69
2021/12/13 06:41:17;;;;;;;5.77;4.67;;;16.30;68.60;;;;;;5049184;28;43441;-69
2021/12/13 06:43:47;;;;;;;7.17;4.23;;;16.20;68.60;;;;;;5048740;28;43858;-68
2021/12/13 06:46:38;;;;;;;5.67;4.13;;;16.20;68.60;;;;;;5048700;28;43873;-69
2021/12/13 06:49:10;;;;;;;5.43;4.30;;;16.20;68.70;;;;;;5043304;28;43926;-69
2021/12/13 06:51:41;;;;;;;6.47;4.57;;;16.30;68.90;;;;;;5049113;28;44013;-69
2021/12/13 06:54:12;;;;;;;5.10;4.60;;;16.30;68.60;;;;;;5047947;28;43924;-69
2021/12/13 06:56:40;;;;;;;5.03;3.97;;;16.50;68.20;;;;;;5030222;28;46191;-70
2021/12/13 06:59:09;;;;;;;4.53;4.03;;;16.60;67.70;;;;;;5048214;28;43913;-69
2021/12/13 07:01:39;;;;;;;5.33;3.97;;;16.70;67.30;;;;;;5030521;28;44047;-69
2021/12/13 07:04:09;;;;;;;4.43;4.03;;;16.70;67.20;;;;;;5047727;28;43962;-69
2021/12/13 07:06:37;;;;;;;4.20;3.80;;;16.60;67.30;;;;;;5047543;28;43999;-71
2021/12/13 07:09:09;;;;;;;4.50;3.90;;;16.60;67.40;;;;;;5048276;28;43982;-70
2021/12/13 07:11:46;;;;;;;4.13;3.67;;;16.60;67.70;;;;;;5048570;28;44114;-69
2021/12/13 07:14:14;;;;;;;6.50;4.47;;;16.50;67.80;;;;;;5048251;28;43928;-69
2021/12/13 07:16:47;;;;;;;4.00;3.70;;;16.50;67.90;;;;;;5048117;28;43894;-68
2021/12/13 07:19:18;;;;;;;3.93;3.37;;;16.40;68.00;;;;;;5048520;28;43959;-69
2021/12/13 07:21:57;;;;;;;4.17;3.87;;;16.40;68.10;;;;;;5048710;28;43981;-69
2021/12/13 07:24:31;;;;;;;3.70;3.50;;;16.40;68.20;;;;;;5042214;28;43950;-69
2021/12/13 07:27:04;;;;;;;4.40;4.00;;;16.40;68.30;;;;;;5047851;28;43965;-70
2021/12/13 07:29:36;;;;;;;4.27;3.87;;;16.40;68.30;;;;;;5047740;28;44047;-69
2021/12/13 07:32:09;;;;;;;4.50;4.10;;;16.40;68.50;;;;;;5048107;28;43991;-70
2021/12/13 07:34:48;;;;;;;4.37;3.97;;;16.50;68.30;;;;;;5047317;28;43982;-69
2021/12/13 07:37:16;;;;;;;4.70;3.70;;;16.60;67.90;;;;;;5047964;28;43986;-69
2021/12/13 07:39:44;;;;;;;3.60;3.40;;;16.70;67.40;;;;;;5047669;28;43475;-69
2021/12/13 07:42:13;;;;;;;4.40;3.77;;;16.70;67.80;;;;;;5029554;28;44017;-70
2021/12/13 07:44:43;;;;;;;4.13;3.70;;;16.70;67.10;;;;;;5046660;28;44015;-69
2021/12/13 07:47:14;;;;;;;3.70;3.40;;;16.70;67.40;;;;;;5046887;28;43942;-69
2021/12/13 07:49:44;;;;;;;3.87;3.53;;;16.60;68.30;;;;;;5047615;28;43894;-69
2021/12/13 07:52:25;;;;;;;3.20;3.00;;;16.50;67.70;;;;;;5047516;28;44299;-70
2021/12/13 07:54:53;;;;;;;3.90;3.60;;;16.50;67.90;;;;;;5047022;28;43912;-69
2021/12/13 07:57:23;;;;;;;3.43;3.20;;;16.40;68.00;;;;;;5028875;28;44056;-70
2021/12/13 07:59:51;;;;;;;3.37;3.17;;;16.40;68.20;;;;;;5028875;28;44063;-69
2021/12/13 08:02:25;;;;;;;3.80;3.50;;;16.40;68.30;;;;;;5029105;28;44063;-69
2021/12/13 08:04:55;;;;;;;3.60;3.30;;;16.30;68.30;;;;;;5046285;28;43969;-69
2021/12/13 08:07:24;;;;;;;3.47;3.27;;;16.30;68.30;;;;;;5046636;28;43852;-70
2021/12/13 08:09:54;;;;;;;3.50;3.23;;;16.30;68.50;;;;;;5046837;28;44049;-69
2021/12/13 08:12:23;;;;;;;3.13;2.90;;;16.30;68.70;;;;;;5047392;28;44067;-69
2021/12/13 08:14:52;;;;;;;3.97;3.67;;;16.40;68.40;;;;;;5046565;28;44102;-69
2021/12/13 08:17:23;;;;;;;3.33;3.13;;;16.50;68.10;;;;;;5046513;28;43965;-69
2021/12/13 08:19:53;;;;;;;3.47;3.17;;;16.50;67.90;;;;;;5046531;28;43850;-69
2021/12/13 08:22:21;;;;;;;2.93;2.77;;;16.50;67.90;;;;;;5047099;28;44034;-69
2021/12/13 08:24:50;;;;;;;3.57;3.37;;;16.50;68.00;;;;;;5046423;28;44015;-68
2021/12/13 08:27:22;;;;;;;3.20;3.00;;;16.40;68.00;;;;;;5046430;28;44046;-68
2021/12/13 08:29:51;;;;;;;3.33;3.13;;;16.40;68.20;;;;;;5046768;28;44028;-69
2021/12/13 08:32:20;;;;;;;2.90;2.70;;;16.40;68.30;;;;;;5046804;28;43980;-69
2021/12/13 08:34:52;;;;;;;3.50;3.20;;;16.30;68.30;;;;;;5046202;28;45146;-69
2021/12/13 08:37:24;;;;;;;3.40;3.10;;;16.30;68.40;;;;;;5046514;28;44015;-70
2021/12/13 08:39:56;;;;;;;3.30;3.10;;;16.30;68.40;;;;;;5046725;28;43431;-69
2021/12/13 08:42:25;;;;;;;2.93;2.80;;;16.30;68.50;;;;;;5040468;28;43467;-69
2021/12/13 08:44:57;;;;;;;3.10;3.00;;;16.30;68.60;;;;;;5018117;28;45603;-69
2021/12/13 08:47:27;;;;;;;3.50;3.30;;;16.30;68.60;;;;;;5040488;28;43958;-69
2021/12/13 08:49:58;;;;;;;3.30;3.10;;;16.30;68.70;;;;;;5046211;28;43380;-69
2021/12/13 08:52:28;;;;;;;3.20;3.00;;;16.30;68.80;;;;;;5046917;28;43767;-69
2021/12/13 08:55:00;;;;;;;3.30;3.10;;;16.40;68.70;;;;;;5045742;28;44931;-69
2021/12/13 08:57:41;;;;;;;3.13;3.03;;;16.50;68.20;;;;;;5046258;28;44128;-69
2021/12/13 09:00:30;;;;;;;3.00;2.80;;;16.60;67.70;;;;;;5046347;28;43495;-69
2021/12/13 09:02:59;;;;;;;3.37;3.10;;;16.80;67.40;;;;;;5046401;28;43970;-69
2021/12/13 09:05:30;;;;;;;3.10;3.00;;;16.80;67.10;;;;;;5038964;28;44089;-69
2021/12/13 09:08:00;;;;;;;2.80;2.70;;;16.70;67.00;;;;;;5027725;28;45284;-69
2021/12/13 09:10:41;;;;;;;3.20;3.00;;;16.70;67.30;;;;;;5045965;28;43384;-69
2021/12/13 09:13:09;;;;;;;2.80;2.70;;;16.60;67.50;;;;;;5046485;28;44041;-69
2021/12/13 09:15:37;;;;;;;2.87;2.70;;;16.50;67.60;;;;;;5045731;28;44123;-69
2021/12/13 09:18:06;;;;;;;3.20;3.00;;;16.50;67.90;;;;;;5045835;28;43969;-69
2021/12/13 09:20:41;;;;;;;2.70;2.60;;;16.50;68.10;;;;;;5045963;28;43432;-69
2021/12/13 09:23:12;;;;;;;2.63;2.53;;;16.40;68.10;;;;;;5046337;28;43932;-70
2021/12/13 09:25:43;;;;;;;3.00;2.90;;;16.40;68.20;;;;;;5045845;28;43961;-68
2021/12/13 09:28:13;;;;;;;3.10;2.87;;;16.40;68.30;;;;;;5045694;28;43977;-70
2021/12/13 09:30:42;;;;;;;2.60;2.50;;;16.40;68.40;;;;;;5048427;28;43913;-69
2021/12/13 09:33:14;;;;;;;2.67;2.53;;;16.30;68.50;;;;;;5049665;28;43978;-69
2021/12/13 09:35:47;;;;;;;2.67;2.57;;;16.40;68.30;;;;;;5049301;28;44624;-68
2021/12/13 09:38:37;;;;;;;2.63;2.50;;;16.50;67.90;;;;;;5049175;28;43973;-69
2021/12/13 09:41:14;;;;;;;2.77;2.67;;;16.60;67.80;;;;;;5031234;28;44074;-69
2021/12/13 09:43:46;;;;;;;2.57;2.47;;;16.60;67.90;;;;;;5049675;28;44016;-69
2021/12/13 09:46:15;;;;;;;2.67;2.57;;;16.50;67.90;;;;;;5049489;28;44995;-69
2021/12/13 09:48:46;;;;;;;2.50;2.40;;;16.50;68.00;;;;;;5049067;28;43997;-70
2021/12/13 09:51:19;;;;;;;2.30;2.20;;;16.40;68.10;;;;;;5049424;28;44105;-69
2021/12/13 09:53:48;;;;;;;2.53;2.43;;;16.40;68.20;;;;;;5031302;28;43982;-69
2021/12/13 09:56:16;;;;;;;2.47;2.37;;;16.40;68.40;;;;;;5048924;28;43967;-69
2021/12/13 09:58:45;;;;;;;2.27;2.17;;;16.40;68.50;;;;;;5030617;28;44771;-70
2021/12/13 10:01:16;;;;;;;2.47;2.37;;;16.30;68.50;;;;;;5049069;28;43393;-70
2021/12/13 10:03:48;;;;;;;2.60;2.50;;;16.30;68.60;;;;;;5049473;28;43904;-69
2021/12/13 10:06:18;;;;;;;2.83;2.73;;;16.30;68.70;;;;;;5042658;28;43613;-69
2021/12/13 10:08:49;;;;;;;2.30;2.20;;;16.30;68.70;;;;;;5043154;28;43984;-69
2021/12/13 10:11:19;;;;;;;2.40;2.30;;;16.30;68.90;;;;;;5049194;28;43940;-69
2021/12/13 10:13:47;;;;;;;2.47;2.40;;;16.30;68.90;;;;;;5049135;28;43921;-69
2021/12/13 10:16:16;;;;;;;2.40;2.30;;;16.40;68.60;;;;;;5048779;28;44090;-70
2021/12/13 10:18:45;;;;;;;2.50;2.40;;;16.50;68.20;;;;;;5030560;28;44727;-69
2021/12/13 10:21:17;;;;;;;2.37;2.27;;;16.70;67.70;;;;;;5048813;28;44037;-69
2021/12/13 10:23:47;;;;;;;2.53;2.43;;;16.80;67.30;;;;;;5049334;28;43996;-69
2021/12/13 10:26:26;;;;;;;2.30;2.20;;;16.80;67.20;;;;;;5048738;28;44042;-69
2021/12/13 10:28:55;;;;;;;2.40;2.30;;;16.70;67.20;;;;;;5048244;28;44091;-70
2021/12/13 10:31:27;;;;;;;2.47;2.37;;;16.70;67.40;;;;;;5048249;28;44005;-70
2021/12/13 10:33:56;;;;;;;2.20;2.10;;;16.60;67.60;;;;;;5048938;28;43982;-69
2021/12/13 10:36:28;;;;;;;2.30;2.20;;;16.60;67.80;;;;;;5048304;28;43900;-69
2021/12/13 10:38:58;;;;;;;2.63;2.53;;;16.50;67.90;;;;;;5048389;28;43951;-69
2021/12/13 10:41:28;;;;;;;2.30;2.20;;;16.50;68.10;;;;;;5029590;28;44116;-69
2021/12/13 10:43:58;;;;;;;2.37;2.27;;;16.40;68.10;;;;;;5048742;28;43964;-69
2021/12/13 10:46:28;;;;;;;2.37;2.30;;;16.40;68.30;;;;;;5048117;28;43933;-70
2021/12/13 10:49:02;;;;;;;2.30;2.20;;;16.40;68.30;;;;;;5047938;28;43881;-69
2021/12/13 10:51:33;;;;;;;2.43;2.33;;;16.40;68.40;;;;;;5048287;28;44025;-69
2021/12/13 10:54:04;;;;;;;2.40;2.30;;;16.40;68.60;;;;;;5030242;28;44115;-69
2021/12/13 10:56:34;;;;;;;2.00;2.00;;;16.50;68.40;;;;;;5047926;28;43972;-70
2021/12/13 10:59:04;;;;;;;2.60;2.50;;;16.50;67.90;;;;;;5048056;28;44162;-69
2021/12/13 11:01:33;;;;;;;2.20;2.20;;;16.60;67.80;;;;;;5047928;28;43968;-69
2021/12/13 11:04:03;;;;;;;2.30;2.20;;;16.50;67.90;;;;;;5048082;28;44035;-69
2021/12/13 11:06:33;;;;;;;2.23;2.13;;;16.50;68.00;;;;;;5047562;28;43947;-69
2021/12/13 11:09:01;;;;;;;1.93;1.93;;;16.50;68.20;;;;;;5029369;28;45432;-69
2021/12/13 11:11:34;;;;;;;2.40;2.30;;;16.40;68.30;;;;;;5047841;28;44012;-69
2021/12/13 11:14:03;;;;;;;2.23;2.23;;;16.40;68.40;;;;;;5047941;28;44026;-69
2021/12/13 11:16:34;;;;;;;2.50;2.40;;;16.30;68.50;;;;;;5047512;28;43932;-68
2021/12/13 11:19:02;;;;;;;2.33;2.33;;;16.30;68.50;;;;;;5047775;28;43964;-69
2021/12/13 11:21:34;;;;;;;2.40;2.30;;;16.30;68.70;;;;;;5047736;28;44003;-69
2021/12/13 11:24:03;;;;;;;2.40;2.30;;;16.30;68.70;;;;;;5048172;28;43413;-69
2021/12/13 11:26:34;;;;;;;2.40;2.40;;;16.30;68.70;;;;;;5047345;28;43962;-69
2021/12/13 11:29:02;;;;;;;1.93;1.93;;;16.30;68.70;;;;;;5047533;28;43962;-69
2021/12/13 11:32:11;;;;;;;2.70;2.60;;;16.30;68.80;;;;;;5047586;28;43403;-69
2021/12/13 11:34:47;;;;;;;2.90;2.80;;;16.30;68.90;;;;;;4990983;28;44025;-69
2021/12/13 11:37:42;;;;;;;2.27;2.17;;;16.40;68.60;;;;;;5047672;28;43907;-69
2021/12/13 11:40:21;;;;;;;2.63;2.53;;;16.60;68.10;;;;;;5047436;28;44064;-69
2021/12/13 11:43:08;;;;;;;2.57;2.47;;;16.70;67.60;;;;;;5047547;28;44072;-69
2021/12/13 11:46:03;;;;;;;2.60;2.50;;;16.80;67.30;;;;;;5047657;28;43930;-69
2021/12/13 11:49:00;;;;;;;2.40;2.30;;;16.80;67.30;;;;;;5047236;28;43879;-70
2021/12/13 11:51:59;;;;;;;2.33;2.23;;;16.70;67.40;;;;;;5042584;28;43949;-69
2021/12/13 11:55:04;;;;;;;1.97;1.97;;;16.60;67.70;;;;;;5013146;28;44387;-70
2021/12/13 11:58:03;;;;;;;2.50;2.40;;;16.50;67.90;;;;;;5044418;28;43957;-69
2021/12/13 12:00:42;;;;;;;2.03;2.03;;;16.50;68.20;;;;;;5047134;28;43533;-70
2021/12/13 12:03:45;;;;;;;2.40;2.30;;;16.40;68.30;;;;;;5028865;28;44373;-69
2021/12/13 12:06:49;;;;;;;2.50;2.40;;;16.40;68.40;;;;;;5040666;28;43364;-69
2021/12/13 12:09:35;;;;;;;2.70;2.60;;;16.30;68.50;;;;;;5046117;28;44066;-69
2021/12/13 12:12:21;;;;;;;2.20;2.20;;;16.30;68.60;;;;;;5043664;28;43965;-69
2021/12/13 12:14:49;;;;;;;2.20;2.20;;;16.30;68.80;;;;;;5045683;28;43920;-69
2021/12/13 12:17:17;;;;;;;2.40;2.30;;;16.40;68.80;;;;;;5046932;28;43376;-70
2021/12/13 12:19:45;;;;;;;2.20;2.20;;;16.50;68.50;;;;;;5047197;28;43937;-69
2021/12/13 12:22:15;;;;;;;2.20;2.10;;;16.50;68.10;;;;;;5028610;28;45452;-69
2021/12/13 12:24:44;;;;;;;2.23;2.23;;;16.50;68.10;;;;;;5047053;28;43396;-69
2021/12/13 12:27:15;;;;;;;2.37;2.30;;;16.50;68.10;;;;;;5047107;28;44269;-69
2021/12/13 12:29:46;;;;;;;2.20;2.20;;;16.50;68.20;;;;;;5047206;28;43969;-70
2021/12/13 12:32:16;;;;;;;2.20;2.20;;;16.40;68.30;;;;;;5046778;28;45139;-70
2021/12/13 12:34:50;;;;;;;2.30;2.20;;;16.40;68.30;;;;;;5028478;28;45402;-69
2021/12/13 12:37:44;;;;;;;2.10;2.10;;;16.40;68.50;;;;;;5046717;28;44044;-70
2021/12/13 12:40:20;;;;;;;2.47;2.37;;;16.30;68.50;;;;;;5028362;28;43848;-69
2021/12/13 12:42:49;;;;;;;2.30;2.20;;;16.30;68.60;;;;;;5046422;28;44126;-69
2021/12/13 12:45:22;;;;;;;2.43;2.33;;;16.30;68.60;;;;;;5028511;28;45216;-69
2021/12/13 12:48:08;;;;;;;2.03;2.03;;;16.30;68.70;;;;;;5046674;28;43961;-69
2021/12/13 12:50:38;;;;;;;2.40;2.30;;;16.30;68.70;;;;;;5040479;28;43408;-69
2021/12/13 12:53:08;;;;;;;2.27;2.27;;;16.30;68.80;;;;;;5040246;28;43928;-69
2021/12/13 12:55:39;;;;;;;2.33;2.27;;;16.30;69.00;;;;;;5028074;28;44430;-69
2021/12/13 12:58:09;;;;;;;2.70;2.50;;;16.40;68.80;;;;;;5028380;28;43430;-70
2021/12/13 13:00:39;;;;;;;2.23;2.13;;;16.50;68.40;;;;;;5028222;28;44241;-69
2021/12/13 13:03:07;;;;;;;2.40;2.30;;;16.70;68.00;;;;;;5046159;28;43594;-69
2021/12/13 13:05:35;;;;;;;2.33;2.23;;;16.80;67.50;;;;;;5045191;28;43435;-69
2021/12/13 13:08:03;;;;;;;2.40;2.30;;;16.80;67.20;;;;;;5046036;28;44082;-69
2021/12/13 13:10:49;;;;;;;2.33;2.23;;;16.80;67.20;;;;;;5028122;28;43550;-69
2021/12/13 13:13:18;;;;;;;2.50;2.40;;;16.70;67.40;;;;;;5028070;28;46150;-69
2021/12/13 13:15:48;;;;;;;2.00;2.00;;;16.60;67.60;;;;;;5046037;28;43971;-69
2021/12/13 13:18:18;;;;;;;2.33;2.23;;;16.60;67.90;;;;;;5046412;28;43359;-70